Time;durP1;ratioP1;P1;durP2;ratioP2;P2;SDS_P1;SDS_P2;PMS_P1;PMS_P2;Temp;Humidity;BMP_temperature;BMP_pressure;BME280_temperature;BME280_humidity;BME280_pressure;Samples;Min_cycle;Max_cycle;Signal;HPM_P1;HPM_P2
2021/01/26 00:00:50;;;;;;;3.97;1.55;;;29.00;67.20;;;;;;5051085;28;20035;-58
2021/01/26 00:03:17;;;;;;;2.80;1.50;;;29.10;65.60;;;;;;5051486;28;20120;-60
2021/01/26 00:05:45;;;;;;;5.35;2.03;;;29.20;65.80;;;;;;5051489;28;20078;-57
2021/01/26 00:08:13;;;;;;;2.22;1.30;;;29.20;66.20;;;;;;5051281;28;20107;-60
2021/01/26 00:10:41;;;;;;;7.32;1.27;;;29.30;62.50;;;;;;5051295;28;20037;-57
2021/01/26 00:13:09;;;;;;;3.03;1.30;;;29.30;63.50;;;;;;5052080;28;20029;-57
2021/01/26 00:15:37;;;;;;;4.28;1.55;;;29.40;64.20;;;;;;5055036;28;20017;-54
2021/01/26 00:18:05;;;;;;;3.25;1.17;;;29.50;60.60;;;;;;5055613;28;20498;-59
2021/01/26 00:20:33;;;;;;;4.15;1.45;;;29.60;61.50;;;;;;5055121;28;20025;-56
2021/01/26 00:23:00;;;;;;;4.18;1.30;;;29.70;60.50;;;;;;5055359;28;20029;-62
2021/01/26 00:25:36;;;;;;;5.32;1.63;;;29.70;63.00;;;;;;5055500;28;20428;-60
2021/01/26 00:28:05;;;;;;;2.58;1.23;;;29.70;63.10;;;;;;5055179;28;20060;-63
2021/01/26 00:30:36;;;;;;;3.00;1.50;;;29.60;63.00;;;;;;5054935;28;20488;-62
2021/01/26 00:33:13;;;;;;;4.15;1.20;;;29.80;58.50;;;;;;5055322;28;20060;-58
2021/01/26 00:35:40;;;;;;;4.57;1.20;;;29.90;62.20;;;;;;5055020;28;20501;-61
2021/01/26 00:38:08;;;;;;;6.18;1.23;;;29.80;60.00;;;;;;5055164;28;20021;-62
2021/01/26 00:40:38;;;;;;;3.45;1.10;;;30.00;59.60;;;;;;5041900;28;20416;-55
2021/01/26 00:43:06;;;;;;;5.78;1.67;;;30.00;61.10;;;;;;5050901;28;20103;-60
2021/01/26 00:45:33;;;;;;;7.28;1.73;;;30.10;61.00;;;;;;5050691;28;20051;-56
2021/01/26 00:48:01;;;;;;;4.18;1.60;;;30.10;60.30;;;;;;5049203;28;20055;-55
2021/01/26 00:50:28;;;;;;;3.05;1.27;;;30.20;60.60;;;;;;5050124;28;20094;-59
2021/01/26 00:52:56;;;;;;;3.15;1.63;;;30.40;54.80;;;;;;5051299;28;20478;-62
2021/01/26 00:55:28;;;;;;;3.17;1.33;;;30.30;59.90;;;;;;5050138;28;20017;-64
2021/01/26 00:57:56;;;;;;;2.88;1.10;;;30.20;57.90;;;;;;5047639;28;20021;-51
2021/01/26 01:00:35;;;;;;;4.05;1.10;;;30.30;59.70;;;;;;5049397;28;20080;-53
2021/01/26 01:03:04;;;;;;;3.20;1.27;;;30.30;59.90;;;;;;5049303;28;20025;-53
2021/01/26 01:05:32;;;;;;;1.80;0.80;;;30.40;59.30;;;;;;5048240;28;20037;-49
2021/01/26 01:08:00;;;;;;;3.35;1.05;;;30.40;58.60;;;;;;5045034;28;20040;-52
2021/01/26 01:10:36;;;;;;;2.08;0.90;;;30.40;58.80;;;;;;5048318;28;20064;-52
2021/01/26 01:13:08;;;;;;;1.77;0.70;;;30.40;58.60;;;;;;5049908;28;20033;-61
2021/01/26 01:15:37;;;;;;;4.13;0.90;;;30.50;58.00;;;;;;5049897;28;20083;-56
2021/01/26 01:18:05;;;;;;;3.30;1.08;;;30.70;55.50;;;;;;5045897;28;20032;-56
2021/01/26 01:20:33;;;;;;;4.93;1.80;;;30.70;55.10;;;;;;5049004;28;20108;-61
2021/01/26 01:23:00;;;;;;;5.90;1.20;;;30.80;57.30;;;;;;5051363;28;20049;-58
2021/01/26 01:25:28;;;;;;;2.28;1.02;;;30.80;57.00;;;;;;5049195;28;20060;-55
2021/01/26 01:27:56;;;;;;;2.58;1.00;;;31.00;56.60;;;;;;5046398;28;20070;-56
2021/01/26 01:30:28;;;;;;;2.45;1.00;;;30.90;54.70;;;;;;5050539;28;20064;-57
2021/01/26 01:32:56;;;;;;;3.15;1.00;;;31.10;55.90;;;;;;5049758;28;20063;-59
2021/01/26 01:35:23;;;;;;;4.15;1.00;;;30.90;56.20;;;;;;5049343;28;20762;-50
2021/01/26 01:37:51;;;;;;;3.22;1.00;;;31.20;55.10;;;;;;5043860;28;20108;-60
2021/01/26 01:40:29;;;;;;;2.40;0.73;;;31.40;53.80;;;;;;5046920;28;20036;-55
2021/01/26 01:42:57;;;;;;;2.58;0.88;;;31.30;55.00;;;;;;5048299;28;20744;-60
2021/01/26 01:45:25;;;;;;;1.25;0.63;;;31.40;54.30;;;;;;5050899;28;20079;-62
2021/01/26 01:48:05;;;;;;;1.60;0.73;;;31.50;54.10;;;;;;5046458;28;20048;-62
2021/01/26 01:51:08;;;;;;;0.90;0.60;;;31.50;53.00;;;;;;5048782;28;20079;-51
2021/01/26 01:54:00;;;;;;;6.53;1.23;;;31.60;52.10;;;;;;5048225;28;20506;-57
2021/01/26 01:56:43;;;;;;;1.52;0.98;;;31.70;51.80;;;;;;5049538;28;20032;-59
2021/01/26 01:59:19;;;;;;;3.83;0.85;;;31.60;53.90;;;;;;5046421;28;20103;-52
2021/01/26 02:01:47;;;;;;;1.83;0.75;;;31.80;50.00;;;;;;5049874;28;20027;-57
2021/01/26 02:04:19;;;;;;;1.15;0.60;;;31.90;53.50;;;;;;5049370;28;20028;-56
2021/01/26 02:06:53;;;;;;;6.50;0.70;;;31.90;50.10;;;;;;5050392;28;20360;-55
2021/01/26 02:09:32;;;;;;;1.15;0.68;;;31.90;52.20;;;;;;5046144;28;20026;-58
2021/01/26 02:11:59;;;;;;;1.50;0.63;;;31.80;53.40;;;;;;5047820;28;20056;-51
2021/01/26 02:14:30;;;;;;;3.00;0.85;;;31.90;52.30;;;;;;5049736;28;20025;-56
2021/01/26 02:17:01;;;;;;;1.92;0.77;;;32.10;53.20;;;;;;5049956;28;20106;-54
2021/01/26 02:19:53;;;;;;;3.00;0.65;;;32.10;53.30;;;;;;5045991;28;21486;-57
2021/01/26 02:22:53;;;;;;;1.25;0.70;;;32.00;53.20;;;;;;5048778;28;20021;-56
2021/01/26 02:26:08;;;;;;;1.48;0.63;;;32.00;49.80;;;;;;5048741;28;20041;-59
2021/01/26 02:28:53;;;;;;;1.88;0.80;;;32.10;52.90;;;;;;5022962;28;20559;-51
2021/01/26 02:31:39;;;;;;;2.83;0.80;;;32.10;52.60;;;;;;5050354;28;20047;-56
2021/01/26 02:34:32;;;;;;;2.75;0.77;;;32.30;50.70;;;;;;5048457;28;20565;-53
2021/01/26 02:37:49;;;;;;;1.50;0.47;;;32.20;52.60;;;;;;5043741;28;20048;-54
2021/01/26 02:40:40;;;;;;;2.35;0.45;;;32.40;51.90;;;;;;5007085;28;20076;-64
2021/01/26 02:43:32;;;;;;;2.10;0.52;;;32.30;51.60;;;;;;5047255;28;20222;-54
2021/01/26 02:46:34;;;;;;;0.85;0.47;;;32.30;52.80;;;;;;5049433;28;20036;-53
2021/01/26 02:49:33;;;;;;;3.55;0.55;;;32.30;52.20;;;;;;5045175;28;20044;-57
2021/01/26 02:52:14;;;;;;;2.90;0.63;;;32.30;52.10;;;;;;5048534;28;20020;-54
2021/01/26 02:54:51;;;;;;;;;;;32.40;51.40;;;;;;5048429;28;20048;-60
2021/01/26 02:57:26;;;;;;;1.85;0.85;;;32.60;50.40;;;;;;5047869;28;20403;-61
2021/01/26 03:00:16;;;;;;;1.55;0.70;;;32.90;48.60;;;;;;5046757;28;20491;-56
2021/01/26 03:03:04;;;;;;;2.88;0.77;;;33.00;48.30;;;;;;5048745;28;20028;-55
2021/01/26 03:05:56;;;;;;;1.77;0.75;;;32.90;50.60;;;;;;5048427;28;20123;-59
2021/01/26 03:08:31;;;;;;;1.65;0.60;;;33.00;50.20;;;;;;5044271;28;20488;-63
2021/01/26 03:11:20;;;;;;;1.80;0.70;;;32.90;50.60;;;;;;5046760;28;20052;-57
2021/01/26 03:14:11;;;;;;;2.55;0.70;;;33.20;49.50;;;;;;5049095;28;20403;-58
2021/01/26 03:16:43;;;;;;;1.52;0.90;;;33.30;49.80;;;;;;5047782;28;20151;-55
2021/01/26 03:19:21;;;;;;;3.20;1.05;;;33.30;49.70;;;;;;5044996;28;20028;-59
2021/01/26 03:21:55;;;;;;;2.00;1.02;;;33.10;48.90;;;;;;5048965;28;20052;-51
2021/01/26 03:24:34;;;;;;;5.13;1.20;;;32.90;50.60;;;;;;5048412;28;20021;-53
2021/01/26 03:27:09;;;;;;;3.65;1.20;;;33.20;50.10;;;;;;5048087;28;20147;-57
2021/01/26 03:29:41;;;;;;;3.70;0.90;;;33.40;48.50;;;;;;5044648;28;20419;-55
2021/01/26 03:32:13;;;;;;;1.92;0.88;;;33.40;48.80;;;;;;5048208;28;20021;-59
2021/01/26 03:34:40;;;;;;;3.15;1.15;;;33.20;50.30;;;;;;5048231;28;20040;-58
2021/01/26 03:37:08;;;;;;;4.68;1.00;;;33.00;50.50;;;;;;5048931;28;20067;-57
2021/01/26 03:39:36;;;;;;;0.60;0.50;;;33.10;50.80;;;;;;5044205;28;20025;-56
2021/01/26 03:42:05;;;;;;;1.70;0.60;;;33.30;49.20;;;;;;5048301;28;20120;-62
2021/01/26 03:44:34;;;;;;;2.58;0.88;;;33.40;50.60;;;;;;5047230;28;20128;-52
2021/01/26 03:47:29;;;;;;;1.75;0.70;;;33.30;49.40;;;;;;5048650;28;20025;-54
2021/01/26 03:50:05;;;;;;;4.80;1.80;;;33.30;50.10;;;;;;5047034;28;20418;-57
2021/01/26 03:53:09;;;;;;;2.90;0.63;;;33.30;50.50;;;;;;5051938;28;20032;-56
2021/01/26 03:56:01;;;;;;;6.53;1.00;;;33.40;50.60;;;;;;5051109;28;20052;-63
2021/01/26 03:58:50;;;;;;;4.80;1.23;;;33.30;50.80;;;;;;5050378;28;20021;-54
2021/01/26 04:01:32;;;;;;;3.20;1.08;;;33.30;50.30;;;;;;5052160;28;20037;-64
2021/01/26 04:04:08;;;;;;;0.70;0.60;;;33.30;50.50;;;;;;5051894;28;20017;-63
2021/01/26 04:06:50;;;;;;;2.85;0.77;;;33.10;51.50;;;;;;5051605;28;20391;-63
2021/01/26 04:09:38;;;;;;;4.43;0.98;;;33.20;50.30;;;;;;5051135;28;20020;-58
2021/01/26 04:12:12;;;;;;;2.22;1.00;;;33.10;50.60;;;;;;5051337;28;20033;-57
2021/01/26 04:15:06;;;;;;;3.35;0.80;;;32.90;51.80;;;;;;5051514;28;20048;-58
2021/01/26 04:17:36;;;;;;;5.82;0.82;;;33.00;51.00;;;;;;5050101;28;20330;-57
2021/01/26 04:20:17;;;;;;;2.83;0.93;;;32.80;52.30;;;;;;5051350;28;20071;-62
2021/01/26 04:22:44;;;;;;;9.30;3.30;;;32.80;51.80;;;;;;5037943;28;20033;-58
2021/01/26 04:25:36;;;;;;;5.15;3.90;;;32.80;51.00;;;;;;5048120;28;20036;-55
2021/01/26 04:28:12;;;;;;;7.65;4.55;;;32.90;51.40;;;;;;5046755;28;20102;-59
2021/01/26 04:30:41;;;;;;;11.50;9.48;;;32.70;51.20;;;;;;5047232;28;20145;-51
2021/01/26 04:33:12;;;;;;;12.45;11.15;;;32.60;52.70;;;;;;5047601;28;20523;-60
2021/01/26 04:35:40;;;;;;;8.27;7.47;;;32.30;53.40;;;;;;5047926;28;20033;-49
2021/01/26 04:38:08;;;;;;;9.93;8.88;;;32.30;53.60;;;;;;5047733;28;20174;-46
2021/01/26 04:40:36;;;;;;;12.48;10.50;;;32.20;54.00;;;;;;5044796;28;20080;-50
2021/01/26 04:43:25;;;;;;;7.93;6.88;;;32.10;54.00;;;;;;5046413;28;20400;-54
2021/01/26 04:45:59;;;;;;;7.80;7.00;;;32.00;54.60;;;;;;5047153;28;20383;-49
2021/01/26 04:48:47;;;;;;;8.27;7.47;;;31.90;55.20;;;;;;5046832;28;20090;-50
2021/01/26 04:51:54;;;;;;;8.02;6.05;;;31.90;55.50;;;;;;5044333;28;20079;-52
2021/01/26 04:54:42;;;;;;;8.45;6.35;;;32.00;55.20;;;;;;5046389;28;20064;-52
2021/01/26 04:57:43;;;;;;;8.13;6.65;;;32.10;55.10;;;;;;5046594;28;20025;-54
2021/01/26 05:00:18;;;;;;;8.20;7.22;;;32.00;55.20;;;;;;5044568;28;20517;-54
2021/01/26 05:03:14;;;;;;;8.90;5.43;;;31.70;55.90;;;;;;5051842;28;20025;-49
2021/01/26 05:05:46;;;;;;;9.00;6.97;;;31.70;55.90;;;;;;5044712;28;20392;-52
2021/01/26 05:08:22;;;;;;;8.65;6.10;;;31.60;56.50;;;;;;5051302;28;20028;-52
2021/01/26 05:10:51;;;;;;;6.53;5.35;;;31.60;56.40;;;;;;5046576;28;20044;-58
2021/01/26 05:13:42;;;;;;;7.10;6.40;;;31.70;56.40;;;;;;5050102;28;20025;-52
2021/01/26 05:16:21;;;;;;;8.82;5.38;;;31.60;56.80;;;;;;5049363;28;20045;-51
2021/01/26 05:19:18;;;;;;;7.78;6.05;;;31.70;56.20;;;;;;5051046;28;20498;-58
2021/01/26 05:22:20;;;;;;;9.90;6.07;;;31.60;56.60;;;;;;5046120;28;20059;-49
2021/01/26 05:24:55;;;;;;;6.28;5.63;;;31.50;56.50;;;;;;5043751;28;20117;-53
2021/01/26 05:27:23;;;;;;;10.60;8.05;;;31.40;57.10;;;;;;5050496;28;20067;-49
2021/01/26 05:29:50;;;;;;;15.73;11.00;;;31.20;57.70;;;;;;5050480;28;20504;-55
2021/01/26 05:32:18;;;;;;;12.55;9.43;;;31.20;57.70;;;;;;5045249;28;20487;-52
2021/01/26 05:34:45;;;;;;;14.68;12.85;;;31.30;57.30;;;;;;5050681;28;20064;-51
2021/01/26 05:37:15;;;;;;;13.35;10.52;;;31.20;58.20;;;;;;5051041;28;20100;-54
2021/01/26 05:40:06;;;;;;;10.98;9.07;;;31.30;57.90;;;;;;5049627;28;20053;-57
2021/01/26 05:42:35;;;;;;;10.40;7.30;;;31.40;57.70;;;;;;5050023;28;20053;-56
2021/01/26 05:45:09;;;;;;;10.00;7.75;;;31.30;56.70;;;;;;5050429;28;20063;-56
2021/01/26 05:47:39;;;;;;;8.40;6.82;;;31.40;57.10;;;;;;5047615;28;20044;-53
2021/01/26 05:50:26;;;;;;;8.15;6.82;;;31.50;57.10;;;;;;5046942;28;20060;-54
2021/01/26 05:53:03;;;;;;;9.63;7.22;;;31.30;57.40;;;;;;5050991;28;20394;-59
2021/01/26 05:55:34;;;;;;;8.95;7.22;;;31.20;57.60;;;;;;5041970;28;20063;-54
2021/01/26 05:58:10;;;;;;;10.68;7.85;;;31.30;57.70;;;;;;5050641;28;20028;-53
2021/01/26 06:00:39;;;;;;;12.75;7.78;;;31.20;57.90;;;;;;5048556;28;20322;-51
2021/01/26 06:03:22;;;;;;;9.82;7.50;;;31.20;58.50;;;;;;5049113;28;20111;-56
2021/01/26 06:06:17;;;;;;;11.32;6.88;;;31.00;58.70;;;;;;5049980;28;20032;-55
2021/01/26 06:08:56;;;;;;;11.02;7.28;;;31.10;58.90;;;;;;5050201;28;20029;-50
2021/01/26 06:11:31;;;;;;;9.43;6.22;;;31.10;58.70;;;;;;5047169;28;20037;-53
2021/01/26 06:14:16;;;;;;;7.13;5.68;;;31.00;58.80;;;;;;5050471;28;20021;-56
2021/01/26 06:16:43;;;;;;;9.95;5.70;;;31.00;59.20;;;;;;5049095;28;20029;-56
2021/01/26 06:19:17;;;;;;;7.85;6.18;;;30.90;58.90;;;;;;5050104;28;20062;-52
2021/01/26 06:21:52;;;;;;;11.23;6.00;;;30.80;59.90;;;;;;5045858;28;20072;-59
2021/01/26 06:24:22;;;;;;;7.65;6.00;;;30.80;59.40;;;;;;5047119;28;20457;-59
2021/01/26 06:27:16;;;;;;;9.85;4.80;;;30.80;59.90;;;;;;5050117;28;20419;-58
2021/01/26 06:30:01;;;;;;;8.38;4.95;;;30.80;59.60;;;;;;5048001;28;20033;-51
2021/01/26 06:32:46;;;;;;;7.13;4.65;;;30.90;59.40;;;;;;5044400;28;20078;-62
2021/01/26 06:35:26;;;;;;;6.88;4.65;;;30.80;59.80;;;;;;5048911;28;20044;-59
2021/01/26 06:38:09;;;;;;;9.75;4.50;;;30.80;59.30;;;;;;5048711;28;20071;-60
2021/01/26 06:41:07;;;;;;;10.13;4.82;;;30.70;59.70;;;;;;5049634;28;20025;-58
2021/01/26 06:44:02;;;;;;;9.02;4.40;;;30.80;59.70;;;;;;5047419;28;20025;-53
2021/01/26 06:47:06;;;;;;;8.07;4.57;;;30.80;59.80;;;;;;5048937;28;20037;-56
2021/01/26 06:49:51;;;;;;;9.70;4.78;;;30.70;58.70;;;;;;5047999;28;20036;-51
2021/01/26 06:52:36;;;;;;;7.57;4.72;;;30.70;59.80;;;;;;5044158;28;20549;-62
2021/01/26 06:55:08;;;;;;;6.82;4.38;;;30.60;60.20;;;;;;5047830;28;20028;-55
2021/01/26 06:58:14;;;;;;;6.82;4.00;;;30.60;60.50;;;;;;5048610;28;20052;-56
2021/01/26 07:01:11;;;;;;;6.75;4.03;;;30.60;60.10;;;;;;5047228;28;20033;-54
2021/01/26 07:03:38;;;;;;;6.53;3.58;;;30.60;59.70;;;;;;5046589;28;20037;-58
2021/01/26 07:06:33;;;;;;;4.30;3.55;;;30.60;60.30;;;;;;5048934;28;20102;-60
2021/01/26 07:09:05;;;;;;;8.73;4.20;;;30.50;60.40;;;;;;5048657;28;20021;-59
2021/01/26 07:12:10;;;;;;;7.25;4.03;;;30.50;60.30;;;;;;5044223;28;20045;-59
2021/01/26 07:15:01;;;;;;;6.32;3.63;;;30.50;59.80;;;;;;5049609;28;20070;-56
2021/01/26 07:18:00;;;;;;;9.63;4.35;;;30.40;60.60;;;;;;5048956;28;20050;-54
2021/01/26 07:21:02;;;;;;;12.43;4.10;;;30.40;60.80;;;;;;5047857;28;20053;-61
2021/01/26 07:23:31;;;;;;;;;;;30.30;60.30;;;;;;5044863;28;20025;-61
2021/01/26 07:26:24;;;;;;;9.98;3.47;;;30.30;60.40;;;;;;5048402;28;19931;-60
2021/01/26 07:29:14;;;;;;;6.65;3.30;;;30.30;60.90;;;;;;5044779;28;20036;-59
2021/01/26 07:32:20;;;;;;;6.75;3.47;;;30.20;60.50;;;;;;5038148;28;20053;-61
2021/01/26 07:35:06;;;;;;;8.65;3.30;;;30.20;60.30;;;;;;5044618;28;20352;-61
2021/01/26 07:37:52;;;;;;;6.10;3.35;;;30.10;61.10;;;;;;5039460;28;20417;-60
2021/01/26 07:40:37;;;;;;;6.43;3.20;;;30.10;60.80;;;;;;5047082;28;20055;-62
2021/01/26 07:43:32;;;;;;;9.13;4.00;;;30.10;61.40;;;;;;5044947;28;20029;-60
2021/01/26 07:46:11;;;;;;;8.98;4.25;;;30.10;60.40;;;;;;5047432;28;20021;-60
2021/01/26 07:49:13;;;;;;;9.95;3.05;;;30.10;60.90;;;;;;5047707;28;20029;-59
2021/01/26 07:51:43;;;;;;;8.90;2.97;;;30.10;61.40;;;;;;5043625;28;20067;-61
2021/01/26 07:54:22;;;;;;;7.82;3.63;;;30.00;61.90;;;;;;5047918;28;20028;-61
2021/01/26 07:56:49;;;;;;;8.07;3.63;;;29.90;61.40;;;;;;5047455;28;20360;-62
2021/01/26 07:59:32;;;;;;;7.05;3.22;;;29.90;62.30;;;;;;5048024;28;20021;-62
2021/01/26 08:02:01;;;;;;;9.88;3.25;;;29.90;62.10;;;;;;5042499;28;20435;-58
2021/01/26 08:04:35;;;;;;;7.30;3.42;;;29.90;61.90;;;;;;5046407;28;20130;-62
2021/01/26 08:07:04;;;;;;;13.07;3.20;;;29.90;61.90;;;;;;5046254;28;20033;-58
2021/01/26 08:09:56;;;;;;;6.50;2.95;;;29.90;62.30;;;;;;5046327;28;20117;-62
2021/01/26 08:12:41;;;;;;;9.23;3.42;;;29.80;63.00;;;;;;5038960;28;20104;-59
2021/01/26 08:15:35;;;;;;;10.40;3.22;;;29.90;61.30;;;;;;5045358;28;20017;-61
2021/01/26 08:18:21;;;;;;;5.18;2.75;;;29.90;61.70;;;;;;5046032;28;20033;-59
2021/01/26 08:20:49;;;;;;;10.07;3.00;;;29.90;61.80;;;;;;5044400;28;20024;-63
2021/01/26 08:23:30;;;;;;;9.23;3.08;;;29.90;62.50;;;;;;5043958;28;20040;-59
2021/01/26 08:26:16;;;;;;;8.00;3.67;;;29.80;61.40;;;;;;5047950;28;20033;-60
2021/01/26 08:28:48;;;;;;;7.22;3.30;;;29.80;62.20;;;;;;5043316;28;20041;-62
2021/01/26 08:31:45;;;;;;;6.40;3.03;;;29.80;62.40;;;;;;5043229;28;20037;-64
2021/01/26 08:34:27;;;;;;;8.73;3.33;;;29.80;62.30;;;;;;5039464;28;20033;-62
2021/01/26 08:37:15;;;;;;;6.55;2.83;;;29.80;62.20;;;;;;5053889;28;20028;-59
2021/01/26 08:39:46;;;;;;;6.60;3.22;;;29.80;63.30;;;;;;5034518;28;20029;-60
2021/01/26 08:42:42;;;;;;;8.60;3.45;;;29.70;63.10;;;;;;5051717;28;20025;-64
2021/01/26 08:45:15;;;;;;;7.90;3.50;;;29.80;63.60;;;;;;5055087;28;20041;-62
2021/01/26 08:48:04;;;;;;;7.07;3.08;;;29.80;63.50;;;;;;5055335;28;20108;-62
2021/01/26 08:50:45;;;;;;;9.82;2.92;;;29.80;63.30;;;;;;5044515;28;20045;-65
2021/01/26 08:53:23;;;;;;;;;;;29.70;63.50;;;;;;5051727;28;20025;-59
2021/01/26 08:56:02;;;;;;;8.63;3.45;;;29.70;62.30;;;;;;5054493;28;19915;-61
2021/01/26 08:58:49;;;;;;;10.95;3.35;;;29.70;62.10;;;;;;5054823;28;20488;-63
2021/01/26 09:01:39;;;;;;;8.60;3.22;;;29.70;63.50;;;;;;5053704;28;20024;-62
2021/01/26 09:04:16;;;;;;;10.27;3.47;;;29.70;63.10;;;;;;5034904;28;20402;-63
2021/01/26 09:06:48;;;;;;;13.65;3.20;;;29.60;63.70;;;;;;5035102;28;20112;-64
2021/01/26 09:09:21;;;;;;;14.48;3.92;;;29.70;64.20;;;;;;5035460;28;20021;-65
2021/01/26 09:11:56;;;;;;;13.48;4.22;;;29.60;63.00;;;;;;5055010;28;20021;-64
2021/01/26 09:14:27;;;;;;;14.25;3.92;;;29.60;63.60;;;;;;5054886;28;20083;-63
2021/01/26 09:17:28;;;;;;;12.05;3.70;;;29.60;62.50;;;;;;5054443;28;20051;-62
2021/01/26 09:20:17;;;;;;;12.50;3.75;;;29.60;63.60;;;;;;5048286;28;20488;-63
2021/01/26 09:22:44;;;;;;;14.13;4.03;;;29.60;62.80;;;;;;5042364;28;20075;-62
2021/01/26 09:25:14;;;;;;;16.80;3.97;;;29.60;65.30;;;;;;5048676;28;20041;-56
2021/01/26 09:27:42;;;;;;;13.05;4.22;;;29.60;63.70;;;;;;5048970;28;20055;-60
2021/01/26 09:30:22;;;;;;;11.32;4.07;;;29.60;63.80;;;;;;5048764;28;20033;-58
2021/01/26 09:33:18;;;;;;;16.08;4.30;;;29.60;65.50;;;;;;5048911;28;20047;-63
2021/01/26 09:36:01;;;;;;;12.27;4.32;;;29.60;66.30;;;;;;5046531;28;20525;-61
2021/01/26 09:38:48;;;;;;;11.80;4.35;;;29.60;65.80;;;;;;5048069;28;20036;-53
2021/01/26 09:41:18;;;;;;;8.95;3.55;;;29.60;65.60;;;;;;5048438;28;20036;-54
2021/01/26 09:43:49;;;;;;;9.05;3.67;;;29.60;66.10;;;;;;5046554;28;20033;-52
2021/01/26 09:46:35;;;;;;;13.18;4.03;;;29.60;64.10;;;;;;5047859;28;20419;-50
2021/01/26 09:49:26;;;;;;;14.45;3.80;;;29.70;65.50;;;;;;5045834;28;20099;-60
2021/01/26 09:52:01;;;;;;;8.52;3.17;;;29.70;65.00;;;;;;5050997;28;20044;-60
2021/01/26 09:54:34;;;;;;;13.63;4.05;;;29.70;65.80;;;;;;5047122;28;20021;-54
2021/01/26 09:57:04;;;;;;;10.13;3.30;;;29.60;65.70;;;;;;5046909;28;20032;-63
2021/01/26 09:59:36;;;;;;;11.45;4.35;;;29.70;65.70;;;;;;5046913;28;20457;-61
2021/01/26 10:02:10;;;;;;;11.43;3.30;;;29.60;65.50;;;;;;5049512;28;20021;-59
2021/01/26 10:04:40;;;;;;;11.00;3.38;;;29.60;65.90;;;;;;5050750;28;20207;-66
2021/01/26 10:07:11;;;;;;;9.57;3.58;;;29.60;66.40;;;;;;5049815;28;20067;-62
2021/01/26 10:09:42;;;;;;;12.27;4.28;;;29.60;65.60;;;;;;5044915;28;20029;-65
2021/01/26 10:12:33;;;;;;;8.82;3.33;;;29.60;65.70;;;;;;5047699;28;20033;-62
2021/01/26 10:15:26;;;;;;;12.55;3.75;;;29.60;65.30;;;;;;5049519;28;20029;-59
2021/01/26 10:18:15;;;;;;;16.98;3.67;;;29.60;65.10;;;;;;5049174;28;20029;-59
2021/01/26 10:20:47;;;;;;;11.95;3.58;;;29.60;65.10;;;;;;5045459;28;20036;-64
2021/01/26 10:23:28;;;;;;;8.82;2.85;;;29.60;65.60;;;;;;5049665;28;20029;-58
2021/01/26 10:26:07;;;;;;;10.73;3.67;;;29.60;65.30;;;;;;5049719;28;20738;-54
2021/01/26 10:28:54;;;;;;;11.05;2.90;;;29.70;64.80;;;;;;5044242;28;20125;-59
2021/01/26 10:31:21;;;;;;;11.70;3.17;;;29.70;65.20;;;;;;5049085;28;20025;-52
2021/01/26 10:33:49;;;;;;;9.80;3.45;;;29.70;64.90;;;;;;5050606;28;20021;-53
2021/01/26 10:36:22;;;;;;;8.73;2.90;;;29.70;65.30;;;;;;5050866;28;20032;-56
2021/01/26 10:38:50;;;;;;;8.77;3.20;;;29.70;65.40;;;;;;5045429;28;20064;-54
2021/01/26 10:41:17;;;;;;;9.38;3.60;;;29.70;65.80;;;;;;5050438;28;20119;-56
2021/01/26 10:43:45;;;;;;;10.68;3.67;;;29.70;66.00;;;;;;5047943;28;20372;-52
2021/01/26 10:46:26;;;;;;;8.85;3.33;;;29.70;66.10;;;;;;5049732;28;20024;-55
2021/01/26 10:48:54;;;;;;;10.47;3.30;;;29.60;65.90;;;;;;5044910;28;20169;-53
2021/01/26 10:51:29;;;;;;;12.02;4.25;;;29.50;66.10;;;;;;5048982;28;20036;-54
2021/01/26 10:53:56;;;;;;;9.18;3.47;;;29.50;66.30;;;;;;5049779;28;20039;-54
2021/01/26 10:56:24;;;;;;;10.10;3.28;;;29.50;66.40;;;;;;5049679;28;20376;-51
2021/01/26 10:58:51;;;;;;;10.95;4.03;;;29.40;66.60;;;;;;5045216;28;20044;-55
2021/01/26 11:01:20;;;;;;;7.18;3.55;;;29.40;66.70;;;;;;5049292;28;20710;-52
2021/01/26 11:03:49;;;;;;;10.18;3.08;;;29.30;66.90;;;;;;5049641;28;20025;-61
2021/01/26 11:06:18;;;;;;;5.72;3.33;;;29.30;67.00;;;;;;5049787;28;20020;-60
2021/01/26 11:08:47;;;;;;;12.38;4.20;;;29.30;67.10;;;;;;5043970;28;20039;-51
2021/01/26 11:11:20;;;;;;;9.57;4.10;;;29.20;67.20;;;;;;5049097;28;20048;-59
2021/01/26 11:13:48;;;;;;;13.07;3.72;;;29.20;67.30;;;;;;5047401;28;20021;-61
2021/01/26 11:16:15;;;;;;;6.75;3.63;;;29.20;67.50;;;;;;5050474;28;20463;-58
2021/01/26 11:18:43;;;;;;;8.40;4.95;;;29.10;67.70;;;;;;5045240;28;20033;-56
2021/01/26 11:21:11;;;;;;;7.53;4.00;;;29.00;67.70;;;;;;5049477;28;20025;-61
2021/01/26 11:23:39;;;;;;;12.63;5.25;;;28.90;67.80;;;;;;5048220;28;20476;-55
2021/01/26 11:26:08;;;;;;;9.70;5.35;;;28.90;68.10;;;;;;5049351;28;20039;-54
2021/01/26 11:28:36;;;;;;;12.05;5.55;;;28.90;68.30;;;;;;5044847;28;20075;-59
2021/01/26 11:31:04;;;;;;;10.40;5.55;;;28.80;68.30;;;;;;5047873;28;20033;-55
2021/01/26 11:33:32;;;;;;;10.43;6.10;;;28.80;68.50;;;;;;5048954;28;20029;-55
2021/01/26 11:35:59;;;;;;;14.05;8.23;;;28.80;68.90;;;;;;5050603;28;20035;-62
2021/01/26 11:38:34;;;;;;;15.63;7.05;;;28.70;69.10;;;;;;5048346;28;20112;-63
2021/01/26 11:41:06;;;;;;;18.73;7.97;;;28.70;69.10;;;;;;5050511;28;20025;-60
2021/01/26 11:43:34;;;;;;;16.85;8.00;;;28.60;69.10;;;;;;5052095;28;20487;-62
2021/01/26 11:46:03;;;;;;;15.40;7.55;;;28.50;69.10;;;;;;5052222;28;20122;-64
2021/01/26 11:48:30;;;;;;;15.32;8.43;;;28.50;69.40;;;;;;5052308;28;20021;-64
2021/01/26 11:50:59;;;;;;;13.13;7.57;;;28.50;69.70;;;;;;5052077;28;20079;-63
2021/01/26 11:53:27;;;;;;;14.85;8.05;;;28.40;69.90;;;;;;5051475;28;20017;-63
2021/01/26 11:55:58;;;;;;;12.00;7.43;;;28.30;70.20;;;;;;5051923;28;20036;-63
2021/01/26 11:58:27;;;;;;;15.35;7.72;;;28.30;70.30;;;;;;5052028;28;20025;-62
2021/01/26 12:00:54;;;;;;;14.25;7.97;;;28.30;70.70;;;;;;5050884;28;20021;-63
2021/01/26 12:03:22;;;;;;;18.63;9.18;;;28.20;70.90;;;;;;5051737;28;20052;-63
2021/01/26 12:05:49;;;;;;;19.15;9.25;;;28.10;70.90;;;;;;5051747;28;20079;-60
2021/01/26 12:08:17;;;;;;;16.50;8.88;;;28.10;71.10;;;;;;5051321;28;20028;-60
2021/01/26 12:10:44;;;;;;;15.63;9.65;;;28.10;71.40;;;;;;5054960;28;20055;-61
2021/01/26 12:13:13;;;;;;;21.70;9.63;;;28.10;71.40;;;;;;5055595;28;20017;-63
2021/01/26 12:15:40;;;;;;;12.50;7.53;;;28.00;71.50;;;;;;5055924;28;20111;-62
2021/01/26 12:18:09;;;;;;;15.98;9.10;;;28.00;72.00;;;;;;5054625;28;20047;-63
2021/01/26 12:20:37;;;;;;;15.60;8.80;;;28.00;71.90;;;;;;5055677;28;20043;-61
2021/01/26 12:23:04;;;;;;;13.15;8.93;;;27.90;72.20;;;;;;5055061;28;20029;-64
2021/01/26 12:25:34;;;;;;;15.30;9.43;;;27.90;72.30;;;;;;5055657;28;20025;-63
2021/01/26 12:28:03;;;;;;;17.02;9.40;;;27.90;72.30;;;;;;5055616;28;20190;-66
2021/01/26 12:30:31;;;;;;;19.23;9.73;;;27.80;72.30;;;;;;5055525;28;20021;-63
2021/01/26 12:32:59;;;;;;;17.38;10.15;;;27.80;72.60;;;;;;5055472;28;20380;-62
2021/01/26 12:35:32;;;;;;;19.65;9.77;;;27.80;72.90;;;;;;5055755;28;20100;-61
2021/01/26 12:38:00;;;;;;;19.20;9.25;;;27.80;73.10;;;;;;5054976;28;20028;-65
2021/01/26 12:40:28;;;;;;;21.50;10.68;;;27.80;73.30;;;;;;5053940;28;20409;-65
2021/01/26 12:42:56;;;;;;;19.15;10.32;;;27.70;73.50;;;;;;5053069;28;20025;-66
2021/01/26 12:45:26;;;;;;;13.63;8.70;;;27.80;73.10;;;;;;5055326;28;20357;-64
2021/01/26 12:47:54;;;;;;;16.88;10.55;;;27.80;72.90;;;;;;5055869;28;20036;-64
2021/01/26 12:50:25;;;;;;;19.08;9.77;;;27.80;72.80;;;;;;5055855;28;20207;-65
2021/01/26 12:52:53;;;;;;;16.05;9.60;;;27.80;72.80;;;;;;5055694;28;20028;-64
2021/01/26 12:55:21;;;;;;;15.82;9.25;;;27.80;72.70;;;;;;5055605;28;20119;-61
2021/01/26 12:57:49;;;;;;;19.70;8.65;;;27.70;72.80;;;;;;5055989;28;20032;-62
2021/01/26 13:00:19;;;;;;;17.23;8.93;;;27.80;72.50;;;;;;5055902;28;20033;-61
2021/01/26 13:02:48;;;;;;;16.07;8.73;;;27.80;72.60;;;;;;5044387;28;20033;-63
2021/01/26 13:05:17;;;;;;;14.73;8.20;;;27.70;72.50;;;;;;5050012;28;20063;-63
2021/01/26 13:07:45;;;;;;;16.65;9.45;;;27.70;72.60;;;;;;5049660;28;20032;-60
2021/01/26 13:10:15;;;;;;;13.18;8.57;;;27.70;72.80;;;;;;5052030;28;20108;-65
2021/01/26 13:12:47;;;;;;;16.05;8.02;;;27.70;72.70;;;;;;5050963;28;20131;-62
2021/01/26 13:15:15;;;;;;;;;;;27.70;72.80;;;;;;5050454;28;20032;-64
2021/01/26 13:17:46;;;;;;;16.90;7.97;;;27.70;72.70;;;;;;5052336;28;19905;-60
2021/01/26 13:20:14;;;;;;;13.77;8.80;;;27.70;72.80;;;;;;5051416;28;20101;-65
2021/01/26 13:22:45;;;;;;;13.95;7.00;;;27.70;72.80;;;;;;5051837;28;20293;-62
2021/01/26 13:25:17;;;;;;;13.35;7.38;;;27.60;72.70;;;;;;5048807;28;20471;-61
2021/01/26 13:27:45;;;;;;;15.05;7.88;;;27.60;72.90;;;;;;5051126;28;20049;-65
2021/01/26 13:30:14;;;;;;;16.17;7.45;;;27.60;73.00;;;;;;5052163;28;20598;-63
2021/01/26 13:32:41;;;;;;;12.32;6.65;;;27.60;73.10;;;;;;5051391;28;20029;-62